Athol, Pennsylvania
Current Conditions -  °F | °C
As of 8:54 AM on Saturday 01 Nov 2014 (Local Time) from KPTW Reporting Station
Light Rain Light Rain  
Wind Chill:   Ceiling: 6000
Heat Index:   Visibility: 10mi
Dew Point:   Wind: 13mph
Humidity: 89%   Direction: 20°NNE
Pressure: 29.86"   Gusts: 23mph
Location:  40.3194°N, 75.7364°W
Report Text: KPTW 011254Z AUTO 02011G20KT 10SM -RA OVC060 06/04 A2986 RMK AO2 SLP109 P0009 T00610044
Loading
Personal Weather Stations






























Interactive Weather Map New forecast layout! Learn more

10-Day Weather Forecast

Advertisements
Track Severe Weather on mobile